OJAI/AMM METAR and TAF weather

Enter ICAO airport designator
Station Type Date Time Source
OJAI METAR 2019/10/15 08:15 UTC NOAA

OJAI 150815Z 10018KT 2500 BLDU NSC 29/08 Q1020 NOSIG


Station Type Date Time Source
OJAI Decoded METAR 2019/10/15 08:15 UTC NOAA

Queen Alia Airport, Jordan (OJAI) 31-40N 035-58E
Oct 15, 2019 - 04:15 AM EDT / 2019.10.15 0815 UTC
Wind: from the E (100 degrees) at 21 MPH (18 KT):0
Visibility: 1 mile(s):0
Weather: blowing widespread dust
Temperature: 84 F (29 C)
Dew Point: 46 F (8 C)
Relative Humidity: 26%
Pressure (altimeter): 30.12 in. Hg (1020 hPa)
ob: OJAI 150815Z 10018KT 2500 BLDU NSC 29/08 Q1020 NOSIG
cycle: 8

Station Type Date Time Source
OJAI TAF 2019/10/15 06:15 UTC NOAA

TAF TAF OJAI 150421Z 1506/1612 04012KT 4000 HZ FEW060TCU SCT080 BKN180
TEMPO 1506/1512 SHRA PROB40
TEMPO 1512/1518 12012G22KT 3000 -TSRA FEW060CB BKN080 BKN160
TEMPO 1515/1524 16012G22KT 2000 TSRAGR SCT060CB BKN080

Example: see airport list